createdAt,value
2023-05-10T00:02:02.037Z,33.20
2023-05-10T00:04:29.672Z,36.95
2023-05-10T00:06:56.956Z,31.08
2023-05-10T00:09:24.089Z,30.67
2023-05-10T00:11:51.621Z,28.48
2023-05-10T00:14:19.496Z,31.38
2023-05-10T00:16:46.838Z,33.97
2023-05-10T00:19:14.170Z,30.75
2023-05-10T00:21:41.312Z,32.63
2023-05-10T00:24:08.827Z,29.70
2023-05-10T00:26:36.026Z,31.75
2023-05-10T00:29:03.369Z,32.38
2023-05-10T00:31:30.781Z,34.25
2023-05-10T00:33:57.965Z,38.88
2023-05-10T00:36:25.279Z,45.40
2023-05-10T00:38:52.494Z,38.05
2023-05-10T00:41:19.594Z,39.22
2023-05-10T00:43:46.765Z,35.38
2023-05-10T00:46:16.762Z,36.90
2023-05-10T00:48:45.923Z,37.35
2023-05-10T00:51:13.556Z,38.85
2023-05-10T00:53:41.894Z,35.35
2023-05-10T00:56:09.432Z,37.33
2023-05-10T00:58:36.898Z,40.72
2023-05-10T01:01:04.197Z,37.97
2023-05-10T01:03:32.256Z,39.55
2023-05-10T01:05:59.623Z,39.10
2023-05-10T01:08:27.865Z,33.05
2023-05-10T01:10:55.882Z,42.38
2023-05-10T01:13:33.679Z,36.03
2023-05-10T01:16:03.542Z,46.42
2023-05-10T01:18:34.438Z,48.33
2023-05-10T01:21:07.631Z,48.83
2023-05-10T01:23:43.384Z,47.33
2023-05-10T01:26:41.192Z,54.38
2023-05-10T01:29:08.202Z,50.80
2023-05-10T01:31:53.867Z,51.55
2023-05-10T01:34:36.487Z,50.63
2023-05-10T01:37:16.827Z,52.53
2023-05-10T01:40:09.538Z,48.70
2023-05-10T01:42:49.175Z,49.83
2023-05-10T01:45:28.537Z,52.38
2023-05-10T01:48:11.599Z,50.25
2023-05-10T01:50:46.380Z,46.78
2023-05-10T01:53:20.089Z,43.90
2023-05-10T01:55:50.825Z,42.33
2023-05-10T01:58:33.102Z,43.13
2023-05-10T02:01:04.549Z,44.60
2023-05-10T02:03:34.120Z,46.45
2023-05-10T02:06:01.446Z,48.63
2023-05-10T02:08:29.412Z,45.63
2023-05-10T02:10:58.309Z,44.10
2023-05-10T02:13:28.538Z,48.40
2023-05-10T02:15:58.358Z,42.67
2023-05-10T02:18:28.848Z,40.25
2023-05-10T02:20:57.023Z,40.05
2023-05-10T02:23:25.557Z,37.03
2023-05-10T02:26:00.287Z,37.42
2023-05-10T02:28:28.777Z,40.30
2023-05-10T02:30:56.687Z,38.67
2023-05-10T02:33:24.710Z,41.05
2023-05-10T02:35:53.525Z,41.63
2023-05-10T02:38:23.126Z,41.42
2023-05-10T02:40:51.962Z,40.75
2023-05-10T02:43:22.093Z,48.40
2023-05-10T02:45:50.164Z,44.67
2023-05-10T02:48:18.206Z,45.53
2023-05-10T02:50:47.506Z,53.92
2023-05-10T02:53:23.557Z,55.05
2023-05-10T02:58:22.882Z,71.32
2023-05-10T03:00:50.143Z,114.93
2023-05-10T03:03:17.538Z,125.70
2023-05-10T03:05:44.786Z,154.80
2023-05-10T03:08:12.344Z,151.23
2023-05-10T03:11:02.617Z,151.73
2023-05-10T03:13:48.642Z,137.02
2023-05-10T03:16:26.302Z,134.10
2023-05-10T03:19:03.307Z,131.98
2023-05-10T03:21:31.286Z,129.68
2023-05-10T03:24:08.879Z,114.63
2023-05-10T03:26:38.037Z,100.68
2023-05-10T03:29:07.216Z,78.95
2023-05-10T03:31:34.643Z,80.00
2023-05-10T03:34:02.460Z,75.10
2023-05-10T03:36:31.068Z,75.38
2023-05-10T03:38:58.155Z,75.72
2023-05-10T03:41:26.605Z,70.43
2023-05-10T03:43:53.775Z,66.43
2023-05-10T03:46:21.122Z,67.38
2023-05-10T03:48:48.715Z,68.10
2023-05-10T03:51:16.126Z,62.00
2023-05-10T03:53:43.391Z,64.65
2023-05-10T03:56:10.602Z,62.13
2023-05-10T03:58:37.803Z,59.83
2023-05-10T04:01:05.019Z,63.97
2023-05-10T04:03:32.411Z,64.60
2023-05-10T04:06:03.236Z,61.03
2023-05-10T04:08:30.780Z,62.17
2023-05-10T04:11:12.517Z,61.17
2023-05-10T04:13:39.691Z,62.80
2023-05-10T04:16:07.406Z,62.60
2023-05-10T04:18:34.585Z,61.35
2023-05-10T04:21:02.314Z,60.72
2023-05-10T04:23:29.627Z,61.13
2023-05-10T04:26:03.473Z,63.30
2023-05-10T04:28:30.940Z,63.47
2023-05-10T04:31:09.063Z,60.33
2023-05-10T04:33:37.181Z,61.90
2023-05-10T04:36:05.078Z,63.70
2023-05-10T04:38:32.354Z,61.30
2023-05-10T04:41:10.770Z,66.72
2023-05-10T04:43:38.944Z,61.75
2023-05-10T04:46:07.082Z,69.88
2023-05-10T04:48:34.884Z,65.40
2023-05-10T04:51:02.302Z,71.65
2023-05-10T04:53:29.710Z,67.13
2023-05-10T04:55:56.974Z,69.03
2023-05-10T04:58:24.239Z,67.07
2023-05-10T05:00:51.513Z,66.45
2023-05-10T05:03:18.910Z,67.75
2023-05-10T05:05:46.498Z,65.47
2023-05-10T05:08:14.044Z,68.63
2023-05-10T05:10:41.378Z,64.43
2023-05-10T05:13:08.575Z,67.75
2023-05-10T05:15:35.957Z,67.25
2023-05-10T05:18:03.179Z,61.60
2023-05-10T05:20:34.266Z,64.95
2023-05-10T05:23:01.970Z,56.90
2023-05-10T05:25:29.375Z,60.90
2023-05-10T05:27:56.394Z,57.60
2023-05-10T05:30:23.612Z,52.75
2023-05-10T05:32:50.868Z,50.45
2023-05-10T05:35:18.305Z,48.47
2023-05-10T05:37:45.587Z,50.00
2023-05-10T05:40:15.640Z,48.38
2023-05-10T05:42:43.137Z,48.58
2023-05-10T05:45:14.341Z,45.72
2023-05-10T05:47:41.833Z,41.75
2023-05-10T05:50:09.632Z,43.58
2023-05-10T05:52:37.377Z,45.00
2023-05-10T05:55:05.017Z,45.08
2023-05-10T05:57:32.185Z,45.25
2023-05-10T05:59:59.225Z,48.55
2023-05-10T06:02:26.496Z,49.20
2023-05-10T06:04:53.793Z,52.05
2023-05-10T06:07:21.402Z,52.33
2023-05-10T06:09:48.412Z,48.10
2023-05-10T06:12:15.632Z,45.92
2023-05-10T06:14:43.075Z,42.85
2023-05-10T06:17:10.440Z,41.80
2023-05-10T06:19:38.152Z,45.03
2023-05-10T06:22:05.216Z,40.17
2023-05-10T06:24:32.412Z,41.90
2023-05-10T06:27:03.308Z,38.10
2023-05-10T06:29:30.384Z,40.72
2023-05-10T06:31:57.991Z,36.13
2023-05-10T06:34:25.446Z,39.67
2023-05-10T06:36:53.057Z,38.13
2023-05-10T06:39:20.162Z,38.25
2023-05-10T06:41:55.198Z,37.35
2023-05-10T06:44:22.870Z,37.67
2023-05-10T06:46:51.262Z,37.17
2023-05-10T06:49:18.558Z,37.20
2023-05-10T06:51:46.266Z,40.75
2023-05-10T06:54:13.547Z,38.95
2023-05-10T06:56:40.779Z,38.28
2023-05-10T06:59:10.194Z,40.17
2023-05-10T07:01:37.689Z,36.50
2023-05-10T07:04:05.127Z,36.45
2023-05-10T07:06:33.815Z,33.70
2023-05-10T07:09:01.933Z,35.22
2023-05-10T07:11:28.988Z,31.73
2023-05-10T07:13:56.596Z,29.13
2023-05-10T07:16:23.746Z,33.40
2023-05-10T07:18:51.981Z,30.85
2023-05-10T07:21:19.165Z,25.55
2023-05-10T07:23:46.498Z,26.38
2023-05-10T07:26:13.673Z,25.20
2023-05-10T07:28:41.172Z,23.13
2023-05-10T07:31:08.561Z,25.15
2023-05-10T07:33:35.786Z,28.33
2023-05-10T07:36:03.055Z,18.25
2023-05-10T07:38:30.431Z,20.25
2023-05-10T07:40:57.915Z,18.83
2023-05-10T07:43:24.978Z,18.50
2023-05-10T07:45:55.364Z,17.52
2023-05-10T07:48:23.344Z,17.75
2023-05-10T07:50:50.580Z,18.52
2023-05-10T07:53:18.141Z,17.92
2023-05-10T07:55:45.244Z,14.45
2023-05-10T07:58:12.499Z,15.70
2023-05-10T08:00:40.753Z,13.88
2023-05-10T08:03:08.050Z,17.45
2023-05-10T08:05:35.841Z,16.50
2023-05-10T08:08:03.065Z,18.83
2023-05-10T08:10:30.123Z,14.27
2023-05-10T08:12:57.479Z,12.23
2023-05-10T08:15:24.450Z,13.18
2023-05-10T08:17:51.813Z,11.43
2023-05-10T08:20:20.092Z,9.40
2023-05-10T08:22:48.923Z,14.57
2023-05-10T08:25:17.558Z,16.80
2023-05-10T08:27:44.712Z,22.77
2023-05-10T08:30:12.077Z,30.23
2023-05-10T08:32:39.208Z,34.70
2023-05-10T08:35:06.743Z,29.50
2023-05-10T08:37:34.392Z,25.33
2023-05-10T08:40:01.759Z,23.77
2023-05-10T08:42:31.482Z,25.77
2023-05-10T08:45:00.491Z,32.40
2023-05-10T08:47:28.069Z,32.65
2023-05-10T08:49:55.972Z,31.55
2023-05-10T08:52:25.322Z,32.53
2023-05-10T08:54:53.141Z,32.75
2023-05-10T08:57:21.265Z,28.83
2023-05-10T08:59:48.899Z,25.70
2023-05-10T09:02:18.577Z,29.70
2023-05-10T09:04:46.047Z,31.58
2023-05-10T09:07:13.624Z,29.45
2023-05-10T09:09:40.977Z,36.08
2023-05-10T09:12:12.449Z,29.55
2023-05-10T09:14:40.000Z,32.28
2023-05-10T09:17:07.735Z,27.88
2023-05-10T09:19:35.278Z,30.10
2023-05-10T09:22:03.472Z,34.30
2023-05-10T09:24:33.644Z,26.02
2023-05-10T09:27:01.266Z,23.27
2023-05-10T09:29:41.956Z,25.77
2023-05-10T09:32:09.169Z,28.73
2023-05-10T09:34:36.799Z,32.22
2023-05-10T09:37:07.219Z,28.67
2023-05-10T09:39:38.712Z,26.65
2023-05-10T09:42:11.201Z,30.02
2023-05-10T09:44:39.577Z,33.65
2023-05-10T09:47:07.153Z,32.08
2023-05-10T09:49:34.564Z,29.35
2023-05-10T09:52:05.897Z,29.48
2023-05-10T09:54:33.794Z,26.40
2023-05-10T09:57:11.804Z,25.55
2023-05-10T09:59:44.574Z,25.80
2023-05-10T10:02:12.280Z,29.05
2023-05-10T10:04:46.008Z,25.92
2023-05-10T10:07:13.573Z,23.90
2023-05-10T10:09:41.216Z,24.80
2023-05-10T10:12:08.425Z,21.83
2023-05-10T10:14:35.914Z,28.02
2023-05-10T10:19:36.906Z,20.73
2023-05-10T10:22:04.534Z,19.67
2023-05-10T10:24:31.905Z,27.92
2023-05-10T10:27:22.891Z,24.05
2023-05-10T10:29:53.007Z,22.40
2023-05-10T10:32:29.394Z,20.45
2023-05-10T10:34:57.556Z,20.15
2023-05-10T10:37:25.220Z,22.80
2023-05-10T10:39:55.859Z,21.55
2023-05-10T10:42:47.468Z,29.23
2023-05-10T10:45:15.144Z,23.98
2023-05-10T10:47:44.677Z,17.52
2023-05-10T10:50:14.246Z,19.83
2023-05-10T10:52:42.066Z,23.77
2023-05-10T10:55:20.193Z,21.95
2023-05-10T10:57:56.193Z,19.05
2023-05-10T11:03:09.997Z,22.65
2023-05-10T11:05:42.816Z,18.33
2023-05-10T11:08:19.733Z,16.27
2023-05-10T11:11:02.260Z,24.25
2023-05-10T11:13:47.175Z,23.23
2023-05-10T11:16:26.515Z,21.73
2023-05-10T11:18:55.427Z,20.90
2023-05-10T11:21:22.917Z,21.20
2023-05-10T11:23:52.800Z,24.73
2023-05-10T11:26:26.379Z,25.35
2023-05-10T11:28:59.954Z,25.05
2023-05-10T11:31:31.279Z,23.98
2023-05-10T11:34:01.142Z,25.67
2023-05-10T11:36:30.205Z,26.25
2023-05-10T11:38:58.430Z,23.88
2023-05-10T11:41:26.908Z,25.10
2023-05-10T11:43:55.494Z,25.30
2023-05-10T11:49:05.655Z,24.38
2023-05-10T11:51:37.226Z,22.00
2023-05-10T11:54:10.588Z,25.25
2023-05-10T11:56:40.224Z,24.45
2023-05-10T11:59:09.155Z,26.90
2023-05-10T12:01:37.376Z,21.80
2023-05-10T12:04:04.878Z,25.48
2023-05-10T12:06:36.246Z,22.48
2023-05-10T12:09:07.413Z,26.08
2023-05-10T12:11:41.194Z,21.27
2023-05-10T12:14:11.149Z,26.83
2023-05-10T12:16:38.362Z,21.58
2023-05-10T12:19:06.552Z,21.02
2023-05-10T12:21:34.557Z,25.45
2023-05-10T12:24:04.419Z,19.45
2023-05-10T12:26:31.758Z,19.27
2023-05-10T12:29:20.273Z,24.90
2023-05-10T12:31:55.587Z,20.52
2023-05-10T12:34:37.356Z,21.10
2023-05-10T12:37:05.897Z,18.48
2023-05-10T12:39:47.264Z,17.88
2023-05-10T12:42:14.666Z,18.23
2023-05-10T12:44:41.955Z,17.13
2023-05-10T12:47:09.164Z,17.10
2023-05-10T12:49:38.909Z,18.52
2023-05-10T12:52:06.129Z,16.02
2023-05-10T12:54:33.232Z,19.70
2023-05-10T12:57:00.448Z,20.30
2023-05-10T12:59:27.456Z,16.10
2023-05-10T13:01:54.526Z,20.15
2023-05-10T13:04:21.724Z,15.40
2023-05-10T13:06:48.820Z,17.30
2023-05-10T13:09:16.623Z,18.10
2023-05-10T13:11:43.993Z,16.40
2023-05-10T13:14:11.282Z,19.83
2023-05-10T13:16:38.365Z,18.15
2023-05-10T13:19:06.193Z,19.13
2023-05-10T13:21:33.721Z,19.63
2023-05-10T13:24:02.663Z,16.73
2023-05-10T13:26:30.033Z,18.55
2023-05-10T13:28:57.399Z,22.25
2023-05-10T13:31:25.076Z,23.75
2023-05-10T13:33:52.454Z,22.05
2023-05-10T13:36:19.936Z,22.52
2023-05-10T13:38:47.508Z,21.13
2023-05-10T13:41:17.054Z,20.00
2023-05-10T13:43:44.329Z,18.98
2023-05-10T13:46:11.701Z,22.63
2023-05-10T13:48:40.034Z,24.08
2023-05-10T13:51:07.794Z,22.40
2023-05-10T13:53:35.085Z,25.15
2023-05-10T13:56:03.407Z,23.83
2023-05-10T13:58:30.931Z,25.23
2023-05-10T14:00:58.405Z,23.08
2023-05-10T14:03:26.172Z,25.75
2023-05-10T14:05:53.676Z,21.92
2023-05-10T14:08:21.541Z,26.08
2023-05-10T14:10:50.036Z,27.30
2023-05-10T14:13:17.395Z,26.77
2023-05-10T14:15:44.858Z,26.92
2023-05-10T14:18:12.535Z,27.05
2023-05-10T14:20:40.328Z,30.42
2023-05-10T14:23:11.788Z,28.00
2023-05-10T14:25:41.234Z,30.35
2023-05-10T14:28:08.598Z,23.13
2023-05-10T14:30:36.205Z,29.00
2023-05-10T14:33:04.354Z,27.88
2023-05-10T14:35:34.518Z,26.00
2023-05-10T14:38:01.945Z,25.38
2023-05-10T14:40:29.959Z,25.00
2023-05-10T14:42:57.638Z,29.00
2023-05-10T14:45:25.461Z,25.67
2023-05-10T14:47:52.843Z,23.88
2023-05-10T14:50:35.180Z,27.77
2023-05-10T14:53:03.972Z,22.83
2023-05-10T14:55:31.266Z,23.85
2023-05-10T14:57:59.827Z,24.63
2023-05-10T15:00:27.850Z,21.02
2023-05-10T15:02:55.776Z,27.48
2023-05-10T15:05:24.089Z,20.70
2023-05-10T15:07:51.850Z,14.77
2023-05-10T15:10:19.556Z,14.27
2023-05-10T15:12:46.930Z,11.00
2023-05-10T15:15:14.322Z,13.55
2023-05-10T15:17:41.675Z,12.63
2023-05-10T15:20:09.416Z,12.35
2023-05-10T15:22:36.620Z,13.38
2023-05-10T15:25:04.148Z,13.23
2023-05-10T15:27:31.346Z,11.85
2023-05-10T15:30:00.513Z,13.65
2023-05-10T15:32:27.992Z,14.38
2023-05-10T15:34:55.113Z,15.18
2023-05-10T15:37:24.272Z,12.57
2023-05-10T15:39:51.569Z,14.45
2023-05-10T15:42:18.579Z,14.40
2023-05-10T15:44:46.245Z,11.48
2023-05-10T15:47:13.860Z,10.10
2023-05-10T15:49:41.116Z,11.43
2023-05-10T15:52:08.432Z,12.95
2023-05-10T15:54:35.628Z,10.55
2023-05-10T15:57:02.910Z,9.98
2023-05-10T15:59:30.171Z,11.80
2023-05-10T16:01:58.023Z,11.95
2023-05-10T16:04:25.223Z,10.77
2023-05-10T16:06:52.278Z,11.63
2023-05-10T16:09:19.226Z,14.98
2023-05-10T16:11:46.682Z,10.57
2023-05-10T16:14:13.755Z,10.55
2023-05-10T16:16:41.533Z,12.85
2023-05-10T16:19:08.898Z,16.35
2023-05-10T16:21:36.235Z,15.18
2023-05-10T16:24:04.205Z,14.45
2023-05-10T16:26:32.026Z,20.42
2023-05-10T16:28:59.166Z,18.65
2023-05-10T16:31:26.391Z,15.90
2023-05-10T16:33:53.900Z,16.70
2023-05-10T16:36:21.062Z,19.48
2023-05-10T16:38:48.469Z,19.55
2023-05-10T16:41:15.727Z,15.38
2023-05-10T16:43:44.106Z,20.00
2023-05-10T16:46:12.397Z,16.67
2023-05-10T16:48:44.773Z,19.95
2023-05-10T16:51:16.132Z,18.42
2023-05-10T16:53:43.225Z,17.27
2023-05-10T16:56:11.262Z,19.52
2023-05-10T16:58:38.460Z,17.88
2023-05-10T17:01:05.913Z,24.55
2023-05-10T17:03:33.826Z,23.10
2023-05-10T17:06:01.350Z,21.02
2023-05-10T17:08:28.710Z,18.90
2023-05-10T17:10:56.529Z,20.77
2023-05-10T17:13:23.836Z,20.63
2023-05-10T17:15:51.006Z,21.77
2023-05-10T17:18:19.956Z,22.48
2023-05-10T17:20:47.144Z,21.95
2023-05-10T17:23:14.303Z,23.20
2023-05-10T17:25:42.337Z,22.85
2023-05-10T17:28:09.639Z,23.30
2023-05-10T17:30:36.844Z,21.33
2023-05-10T17:33:04.029Z,23.52
2023-05-10T17:35:31.817Z,26.90
2023-05-10T17:37:59.051Z,24.33
2023-05-10T17:40:26.294Z,24.80
2023-05-10T17:42:53.578Z,23.33
2023-05-10T17:45:21.005Z,22.40
2023-05-10T17:47:48.387Z,25.25
2023-05-10T17:50:15.933Z,27.00
2023-05-10T17:52:43.095Z,25.73
2023-05-10T17:55:11.249Z,26.70
2023-05-10T17:57:39.140Z,30.10
2023-05-10T18:00:09.464Z,29.58
2023-05-10T18:02:37.255Z,31.90
2023-05-10T18:05:08.558Z,26.77
2023-05-10T18:07:36.349Z,32.45
2023-05-10T18:10:04.117Z,31.83
2023-05-10T18:12:31.325Z,25.95
2023-05-10T18:14:58.596Z,30.67
2023-05-10T18:17:26.384Z,28.00
2023-05-10T18:19:54.220Z,27.77
2023-05-10T18:22:21.582Z,30.20
2023-05-10T18:24:49.117Z,31.95
2023-05-10T18:27:16.563Z,29.88
2023-05-10T18:29:43.861Z,36.33
2023-05-10T18:32:11.426Z,37.63
2023-05-10T18:34:39.219Z,37.92
2023-05-10T18:37:09.778Z,36.17
2023-05-10T18:39:37.944Z,36.10
2023-05-10T18:42:09.373Z,37.65
2023-05-10T18:44:37.056Z,31.38
2023-05-10T18:47:04.650Z,36.42
2023-05-10T18:49:32.436Z,30.17
2023-05-10T18:51:59.734Z,30.20
2023-05-10T18:54:27.858Z,29.42
2023-05-10T18:56:55.357Z,28.58
2023-05-10T18:59:23.129Z,31.73
2023-05-10T19:01:51.277Z,26.80
2023-05-10T19:04:18.905Z,30.40
2023-05-10T19:06:46.398Z,31.00
2023-05-10T19:09:13.610Z,36.90
2023-05-10T19:11:43.821Z,37.42
2023-05-10T19:14:11.191Z,35.72
2023-05-10T19:16:41.603Z,38.20
2023-05-10T19:19:10.029Z,45.85
2023-05-10T19:21:37.354Z,45.67
2023-05-10T19:24:05.044Z,34.85
2023-05-10T19:26:32.125Z,44.20
2023-05-10T19:28:59.182Z,35.08
2023-05-10T19:31:26.584Z,38.80
2023-05-10T19:33:54.324Z,38.65
2023-05-10T19:36:21.661Z,29.95
2023-05-10T19:38:49.285Z,25.85
2023-05-10T19:41:16.335Z,28.48
2023-05-10T19:43:43.649Z,26.33
2023-05-10T19:46:11.147Z,26.10
2023-05-10T19:48:39.652Z,23.42
2023-05-10T19:51:09.925Z,26.98
2023-05-10T19:53:37.960Z,23.50
2023-05-10T19:56:06.664Z,24.67
2023-05-10T19:58:34.458Z,23.30
2023-05-10T20:01:01.928Z,25.08
2023-05-10T20:03:29.480Z,26.33
2023-05-10T20:05:56.744Z,24.35
2023-05-10T20:08:23.797Z,25.70
2023-05-10T20:10:51.303Z,31.20
2023-05-10T20:13:18.568Z,29.52
2023-05-10T20:15:46.698Z,27.92
2023-05-10T20:18:13.907Z,28.80
2023-05-10T20:20:41.522Z,27.83
2023-05-10T20:23:08.677Z,35.70
2023-05-10T20:25:36.202Z,35.47
2023-05-10T20:28:03.994Z,38.80
2023-05-10T20:30:31.471Z,34.15
2023-05-10T20:32:58.877Z,41.70
2023-05-10T20:35:26.167Z,40.13
2023-05-10T20:37:53.451Z,38.05
2023-05-10T20:40:20.871Z,43.65
2023-05-10T20:42:53.283Z,43.75
2023-05-10T20:45:20.724Z,47.67
2023-05-10T20:47:48.163Z,44.22
2023-05-10T20:50:15.832Z,41.67
2023-05-10T20:52:43.244Z,43.38
2023-05-10T20:55:10.806Z,47.70
2023-05-10T20:57:39.697Z,51.05
2023-05-10T21:00:08.155Z,47.53
2023-05-10T21:02:35.362Z,48.05
2023-05-10T21:05:02.863Z,52.00
2023-05-10T21:07:32.600Z,42.15
2023-05-10T21:09:59.980Z,48.00
2023-05-10T21:12:27.269Z,49.13
2023-05-10T21:14:54.642Z,49.75
2023-05-10T21:17:21.743Z,50.83
2023-05-10T21:19:48.894Z,50.15
2023-05-10T21:22:17.710Z,46.20
2023-05-10T21:24:44.836Z,50.92
2023-05-10T21:27:12.365Z,51.10
2023-05-10T21:29:40.189Z,45.80
2023-05-10T21:32:07.437Z,58.58
2023-05-10T21:34:34.986Z,48.40
2023-05-10T21:37:02.298Z,44.47
2023-05-10T21:39:29.770Z,45.65
2023-05-10T21:41:57.196Z,47.22
2023-05-10T21:44:24.497Z,45.58
2023-05-10T21:46:54.938Z,47.05
2023-05-10T21:49:22.340Z,47.35
2023-05-10T21:51:50.005Z,48.78
2023-05-10T21:54:18.076Z,49.38
2023-05-10T21:56:45.769Z,54.00
2023-05-10T21:59:13.346Z,46.90
2023-05-10T22:01:43.981Z,42.42
2023-05-10T22:04:11.426Z,48.00
2023-05-10T22:06:38.870Z,49.13
2023-05-10T22:09:06.643Z,50.40
2023-05-10T22:11:34.100Z,50.67
2023-05-10T22:14:01.717Z,54.20
2023-05-10T22:16:29.535Z,53.22
2023-05-10T22:18:56.780Z,52.30
2023-05-10T22:21:23.892Z,52.30
2023-05-10T22:23:51.212Z,55.67
2023-05-10T22:26:18.316Z,50.53
2023-05-10T22:28:45.620Z,54.22
2023-05-10T22:31:13.317Z,46.08
2023-05-10T22:33:40.645Z,51.30
2023-05-10T22:36:08.588Z,48.85
2023-05-10T22:38:36.344Z,57.25
2023-05-10T22:41:03.553Z,51.13
2023-05-10T22:43:30.804Z,54.15
2023-05-10T22:45:58.095Z,59.53
2023-05-10T22:48:25.521Z,53.60
2023-05-10T22:50:52.779Z,54.90
2023-05-10T22:53:20.138Z,49.67
2023-05-10T22:55:47.802Z,54.15
2023-05-10T22:58:15.177Z,53.67
2023-05-10T23:00:42.453Z,53.75
2023-05-10T23:03:09.714Z,56.97
2023-05-10T23:05:36.995Z,55.80
2023-05-10T23:08:04.192Z,58.45
2023-05-10T23:10:31.607Z,58.72
2023-05-10T23:12:58.962Z,64.88
2023-05-10T23:15:26.222Z,54.33
2023-05-10T23:17:53.298Z,56.38
2023-05-10T23:20:20.929Z,59.60
2023-05-10T23:22:48.291Z,64.85
2023-05-10T23:25:15.723Z,56.63
2023-05-10T23:27:43.138Z,60.83
2023-05-10T23:30:11.173Z,57.10
2023-05-10T23:32:38.614Z,57.13
2023-05-10T23:35:06.690Z,67.18
2023-05-10T23:37:33.845Z,64.93
2023-05-10T23:40:01.155Z,56.22
2023-05-10T23:42:28.157Z,62.65
2023-05-10T23:44:55.726Z,56.05
2023-05-10T23:47:23.051Z,60.25
2023-05-10T23:49:50.795Z,62.22
2023-05-10T23:52:18.264Z,56.58
2023-05-10T23:54:46.026Z,59.67
2023-05-10T23:57:13.138Z,49.22
2023-05-10T23:59:40.727Z,50.50
